createdAt,value
2023-02-28T00:03:36.271Z,5.83
2023-02-28T00:08:41.616Z,6.27
2023-02-28T00:13:50.731Z,5.47
2023-02-28T00:18:56.846Z,5.70
2023-02-28T00:24:01.695Z,6.43
2023-02-28T00:29:09.545Z,6.33
2023-02-28T00:34:15.266Z,6.43
2023-02-28T00:39:20.362Z,6.53
2023-02-28T00:44:28.066Z,6.73
2023-02-28T00:49:33.004Z,6.27
2023-02-28T00:54:39.887Z,6.37
2023-02-28T00:59:48.874Z,6.33
2023-02-28T01:04:53.856Z,6.37
2023-02-28T01:09:59.255Z,5.70
2023-02-28T01:15:07.773Z,6.83
2023-02-28T01:20:14.614Z,6.20
2023-02-28T01:25:20.157Z,6.47
2023-02-28T01:30:30.542Z,7.07
2023-02-28T01:35:36.444Z,6.63
2023-02-28T01:40:41.476Z,6.20
2023-02-28T01:45:49.193Z,7.00
2023-02-28T01:50:54.175Z,7.80
2023-02-28T01:55:59.393Z,6.87
2023-02-28T02:01:07.330Z,6.40
2023-02-28T02:06:12.300Z,6.43
2023-02-28T02:11:21.671Z,7.77
2023-02-28T02:16:49.668Z,6.67
2023-02-28T02:22:15.439Z,6.20
2023-02-28T02:27:47.981Z,6.50
2023-02-28T02:33:20.822Z,7.43
2023-02-28T02:38:36.855Z,6.97
2023-02-28T02:43:48.850Z,6.70
2023-02-28T02:48:56.963Z,6.93
2023-02-28T02:54:09.871Z,7.43
2023-02-28T02:59:22.735Z,6.93
2023-02-28T03:04:31.714Z,6.83
2023-02-28T03:09:40.069Z,7.10
2023-02-28T03:14:59.610Z,7.60
2023-02-28T03:20:11.879Z,7.30
2023-02-28T03:25:24.719Z,8.10
2023-02-28T03:30:37.604Z,8.40
2023-02-28T03:35:47.224Z,8.50
2023-02-28T03:41:01.138Z,7.80
2023-02-28T03:46:12.252Z,7.93
2023-02-28T03:51:22.776Z,7.37
2023-02-28T03:56:35.251Z,7.70
2023-02-28T04:01:42.569Z,7.60
2023-02-28T04:06:50.249Z,8.20
2023-02-28T04:11:59.609Z,6.60
2023-02-28T04:17:04.684Z,8.03
2023-02-28T04:22:09.734Z,8.20
2023-02-28T04:27:17.366Z,8.40
2023-02-28T04:32:22.589Z,8.77
2023-02-28T04:37:29.898Z,8.27
2023-02-28T04:42:42.674Z,10.57
2023-02-28T04:47:47.900Z,9.47
2023-02-28T04:52:52.783Z,9.37
2023-02-28T04:58:00.351Z,8.53
2023-02-28T05:03:05.584Z,12.93
2023-02-28T05:08:21.237Z,12.00
2023-02-28T05:13:28.856Z,9.43
2023-02-28T05:18:33.785Z,9.07
2023-02-28T05:23:38.756Z,9.40
2023-02-28T05:28:46.206Z,11.47
2023-02-28T05:33:52.266Z,10.70
2023-02-28T05:38:59.577Z,11.57
2023-02-28T05:44:07.363Z,12.77
2023-02-28T05:49:15.232Z,13.23
2023-02-28T05:54:23.700Z,15.60
2023-02-28T05:59:31.228Z,14.00
2023-02-28T06:04:36.440Z,12.10
2023-02-28T06:09:42.042Z,12.40
2023-02-28T06:14:49.634Z,14.17
2023-02-28T06:19:56.168Z,12.63
2023-02-28T06:25:03.559Z,18.73
2023-02-28T06:30:13.486Z,17.00
2023-02-28T06:35:18.629Z,14.93
2023-02-28T06:40:24.494Z,15.07
2023-02-28T06:45:34.260Z,14.70
2023-02-28T06:50:40.513Z,16.17
2023-02-28T06:55:45.926Z,15.17
2023-02-28T07:00:55.342Z,13.73
2023-02-28T07:06:04.118Z,13.13
2023-02-28T07:11:09.337Z,13.47
2023-02-28T07:16:23.201Z,14.33
2023-02-28T07:21:29.397Z,16.13
2023-02-28T07:26:35.946Z,17.73
2023-02-28T07:31:43.553Z,14.73
2023-02-28T07:36:54.519Z,17.63
2023-02-28T07:42:00.759Z,18.73
2023-02-28T07:47:08.608Z,18.63
2023-02-28T07:52:15.706Z,15.37
2023-02-28T07:57:22.682Z,19.17
2023-02-28T08:02:30.298Z,13.33
2023-02-28T08:07:35.348Z,14.53
2023-02-28T08:12:40.485Z,15.87
2023-02-28T08:17:48.218Z,17.70
2023-02-28T08:22:53.189Z,16.23
2023-02-28T08:27:58.069Z,15.00
2023-02-28T08:33:06.142Z,12.30
2023-02-28T08:38:11.049Z,12.03
2023-02-28T08:43:15.994Z,10.73
2023-02-28T08:48:23.734Z,11.23
2023-02-28T08:53:28.708Z,9.13
2023-02-28T08:58:33.888Z,10.30
2023-02-28T09:03:42.385Z,8.67
2023-02-28T09:08:47.842Z,11.03
2023-02-28T09:13:52.775Z,9.70
2023-02-28T09:19:01.921Z,9.13
2023-02-28T09:24:07.572Z,11.57
2023-02-28T09:29:13.173Z,9.03
2023-02-28T09:34:21.071Z,10.13
2023-02-28T09:39:27.931Z,9.43
2023-02-28T09:44:36.648Z,10.33
2023-02-28T09:49:47.387Z,8.53
2023-02-28T09:54:52.357Z,9.77
2023-02-28T10:00:14.076Z,8.97
2023-02-28T10:05:23.829Z,9.10
2023-02-28T10:10:34.593Z,9.83
2023-02-28T10:15:40.071Z,9.00
2023-02-28T10:20:51.543Z,9.93
2023-02-28T10:26:01.178Z,10.20
2023-02-28T10:31:07.126Z,9.50
2023-02-28T10:36:19.021Z,9.43
2023-02-28T10:41:37.231Z,10.47
2023-02-28T10:46:44.476Z,10.20
2023-02-28T10:51:56.071Z,9.87
2023-02-28T10:57:18.832Z,10.40
2023-02-28T11:02:44.041Z,10.83
2023-02-28T11:07:59.858Z,11.43
2023-02-28T11:13:07.480Z,11.23
2023-02-28T11:18:28.615Z,12.37
2023-02-28T11:23:41.084Z,10.23
2023-02-28T11:28:46.549Z,9.60
2023-02-28T11:33:53.242Z,10.40
2023-02-28T11:39:05.389Z,10.77
2023-02-28T11:44:26.249Z,10.00
2023-02-28T11:49:39.577Z,11.00
2023-02-28T11:55:07.804Z,11.13
2023-02-28T12:00:33.256Z,11.10
2023-02-28T12:05:47.223Z,11.20
2023-02-28T12:11:06.815Z,10.60
2023-02-28T12:16:56.341Z,11.40
2023-02-28T12:22:26.329Z,11.10
2023-02-28T12:27:38.386Z,11.80
2023-02-28T12:32:50.076Z,12.03
2023-02-28T12:38:01.581Z,13.43
2023-02-28T12:43:12.670Z,12.60
2023-02-28T12:48:22.033Z,11.30
2023-02-28T12:53:36.015Z,12.27
2023-02-28T12:58:47.523Z,12.40
2023-02-28T13:04:11.569Z,12.93
2023-02-28T13:09:18.415Z,11.80
2023-02-28T13:14:32.025Z,11.30
2023-02-28T13:19:48.756Z,12.50
2023-02-28T13:24:55.222Z,16.53
2023-02-28T13:30:03.944Z,12.87
2023-02-28T13:35:42.921Z,12.73
2023-02-28T13:40:48.601Z,12.27
2023-02-28T13:46:15.891Z,12.87
2023-02-28T13:51:48.923Z,13.57
2023-02-28T13:57:05.841Z,12.60
2023-02-28T14:02:42.896Z,12.70
2023-02-28T14:07:51.768Z,12.47
2023-02-28T14:13:15.138Z,14.20
2023-02-28T14:18:27.348Z,11.83
2023-02-28T14:24:13.816Z,12.03
2023-02-28T14:29:35.814Z,12.30
2023-02-28T14:34:50.535Z,12.73
2023-02-28T14:39:56.714Z,11.90
2023-02-28T14:45:01.957Z,12.50
2023-02-28T14:50:12.252Z,12.50
2023-02-28T14:55:21.933Z,12.33
2023-02-28T15:00:33.444Z,11.63
2023-02-28T15:05:44.867Z,11.73
2023-02-28T15:10:56.901Z,12.63
2023-02-28T15:16:23.898Z,12.53
2023-02-28T15:21:36.713Z,12.27
2023-02-28T15:26:45.196Z,14.00
2023-02-28T15:31:57.913Z,13.17
2023-02-28T15:37:31.116Z,13.40
2023-02-28T15:42:36.003Z,13.50
2023-02-28T15:47:41.200Z,13.03
2023-02-28T15:52:49.869Z,15.73
2023-02-28T15:57:59.744Z,15.40
2023-02-28T16:03:04.877Z,14.27
2023-02-28T16:08:19.251Z,15.13
2023-02-28T16:13:24.168Z,14.30
2023-02-28T16:18:31.606Z,14.30
2023-02-28T16:23:43.997Z,15.07
2023-02-28T16:28:49.282Z,11.57
2023-02-28T16:33:57.996Z,12.60
2023-02-28T16:39:07.178Z,12.67
2023-02-28T16:44:18.608Z,13.60
2023-02-28T16:49:23.743Z,14.00
2023-02-28T16:54:31.576Z,14.27
2023-02-28T16:59:36.850Z,16.30
2023-02-28T17:04:42.692Z,14.90
2023-02-28T17:09:50.470Z,15.00
2023-02-28T17:14:56.373Z,16.13
2023-02-28T17:20:05.624Z,15.70
2023-02-28T17:25:14.639Z,17.67
2023-02-28T17:30:22.845Z,25.33
2023-02-28T17:35:28.017Z,25.03
2023-02-28T17:40:37.361Z,24.23
2023-02-28T17:45:42.365Z,22.97
2023-02-28T17:50:47.277Z,19.57
2023-02-28T17:55:54.878Z,17.97
2023-02-28T18:01:00.420Z,18.87
2023-02-28T18:06:06.622Z,20.60
2023-02-28T18:11:22.168Z,19.40
2023-02-28T18:16:27.821Z,19.07
2023-02-28T18:21:33.135Z,17.60
2023-02-28T18:26:44.335Z,19.70
2023-02-28T18:31:49.500Z,18.77
2023-02-28T18:36:56.529Z,18.40
2023-02-28T18:42:04.392Z,20.73
2023-02-28T18:47:12.240Z,18.83
2023-02-28T18:52:17.461Z,19.77
2023-02-28T18:57:25.463Z,22.13
2023-02-28T19:02:32.953Z,23.90
2023-02-28T19:07:38.444Z,24.07
2023-02-28T19:12:47.189Z,26.67
2023-02-28T19:17:52.553Z,25.47
2023-02-28T19:22:58.316Z,25.60
2023-02-28T19:28:10.050Z,22.07
2023-02-28T19:33:15.496Z,20.30
2023-02-28T19:38:21.467Z,25.90
2023-02-28T19:43:29.261Z,22.57
2023-02-28T19:48:34.594Z,25.57
2023-02-28T19:53:45.120Z,32.73
2023-02-28T19:58:53.396Z,34.13
2023-02-28T20:03:58.888Z,29.03
2023-02-28T20:09:04.340Z,29.00
2023-02-28T20:14:13.707Z,28.00
2023-02-28T20:19:19.172Z,27.23
2023-02-28T20:24:26.067Z,27.93
2023-02-28T20:29:34.048Z,26.90
2023-02-28T20:34:39.057Z,24.90
2023-02-28T20:39:44.823Z,25.40
2023-02-28T20:44:52.757Z,22.37
2023-02-28T20:49:57.877Z,24.90
2023-02-28T20:55:02.864Z,24.13
2023-02-28T21:00:16.233Z,22.73
2023-02-28T21:05:21.186Z,23.43
2023-02-28T21:10:26.396Z,24.70
2023-02-28T21:15:33.933Z,25.20
2023-02-28T21:20:39.174Z,23.60
2023-02-28T21:25:44.253Z,23.30
2023-02-28T21:30:51.872Z,24.03
2023-02-28T21:36:05.860Z,25.57
2023-02-28T21:41:13.034Z,23.70
2023-02-28T21:46:22.487Z,25.23
2023-02-28T21:51:30.541Z,25.93
2023-02-28T21:56:40.314Z,24.23
2023-02-28T22:01:48.899Z,23.33
2023-02-28T22:06:56.248Z,27.27
2023-02-28T22:12:01.689Z,26.37
2023-02-28T22:17:09.271Z,26.83
2023-02-28T22:22:14.170Z,23.97
2023-02-28T22:27:19.106Z,23.43
2023-02-28T22:32:27.089Z,21.50
2023-02-28T22:37:32.164Z,22.03
2023-02-28T22:42:37.295Z,21.57
2023-02-28T22:47:44.760Z,21.20
2023-02-28T22:52:49.729Z,22.20
2023-02-28T22:57:55.215Z,21.03
2023-02-28T23:03:02.909Z,20.13
2023-02-28T23:08:08.193Z,21.30
2023-02-28T23:13:13.054Z,20.33
2023-02-28T23:18:20.861Z,20.60
2023-02-28T23:23:25.834Z,19.70
2023-02-28T23:28:31.404Z,20.50
2023-02-28T23:33:39.184Z,18.30
2023-02-28T23:38:45.335Z,20.33
2023-02-28T23:43:50.848Z,19.90
2023-02-28T23:48:58.810Z,18.57
2023-02-28T23:54:05.034Z,18.63
2023-02-28T23:59:10.450Z,18.33
